createdAt,value
2022-10-18T00:00:59.008Z,12.15
2022-10-18T00:06:19.665Z,12.11
2022-10-18T00:08:54.081Z,12.12
2022-10-18T00:11:26.196Z,12.08
2022-10-18T00:13:58.668Z,12.04
2022-10-18T00:16:30.784Z,12.03
2022-10-18T00:19:03.431Z,12.02
2022-10-18T00:21:35.528Z,12.01
2022-10-18T00:24:08.375Z,12.00
2022-10-18T00:26:40.590Z,11.97
2022-10-18T00:29:16.982Z,11.92
2022-10-18T00:31:49.093Z,11.90
2022-10-18T00:34:21.266Z,11.88
2022-10-18T00:36:53.545Z,11.88
2022-10-18T00:39:25.755Z,11.88
2022-10-18T00:41:57.909Z,11.86
2022-10-18T00:45:04.793Z,11.75
2022-10-18T00:47:37.607Z,11.58
2022-10-18T00:50:11.114Z,11.46
2022-10-18T00:52:46.163Z,11.44
2022-10-18T00:55:18.391Z,11.46
2022-10-18T00:57:50.966Z,11.48
2022-10-18T01:00:21.732Z,11.46
2022-10-18T01:02:53.911Z,11.43
2022-10-18T01:05:26.109Z,11.44
2022-10-18T01:08:16.270Z,11.44
2022-10-18T01:10:55.902Z,11.44
2022-10-18T01:13:37.142Z,11.43
2022-10-18T01:16:13.561Z,11.43
2022-10-18T01:18:48.541Z,11.43
2022-10-18T01:21:31.930Z,11.45
2022-10-18T01:24:29.797Z,11.42
2022-10-18T01:27:29.233Z,11.33
2022-10-18T01:30:32.239Z,11.31
2022-10-18T01:33:08.785Z,11.31
2022-10-18T01:35:44.433Z,11.31
2022-10-18T01:38:18.233Z,11.31
2022-10-18T01:40:51.395Z,11.31
2022-10-18T01:43:24.683Z,11.30
2022-10-18T01:45:58.082Z,11.27
2022-10-18T01:48:30.516Z,11.26
2022-10-18T01:51:02.723Z,11.25
2022-10-18T01:53:36.239Z,11.24
2022-10-18T01:56:26.833Z,11.25
2022-10-18T01:59:09.199Z,11.25
2022-10-18T02:01:49.662Z,11.24
2022-10-18T02:04:30.027Z,11.24
2022-10-18T02:07:08.037Z,11.24
2022-10-18T02:09:46.380Z,11.22
2022-10-18T02:12:19.321Z,11.20
2022-10-18T02:14:52.693Z,11.20
2022-10-18T02:17:26.460Z,11.19
2022-10-18T02:19:59.931Z,11.17
2022-10-18T02:22:34.306Z,11.13
2022-10-18T02:25:10.446Z,11.10
2022-10-18T02:27:42.952Z,11.07
2022-10-18T02:30:15.530Z,11.03
2022-10-18T02:32:51.145Z,10.95
2022-10-18T02:35:26.320Z,10.92
2022-10-18T02:38:00.093Z,10.93
2022-10-18T02:40:32.466Z,10.90
2022-10-18T02:43:05.292Z,10.88
2022-10-18T02:45:38.126Z,10.88
2022-10-18T02:48:10.476Z,10.86
2022-10-18T02:50:42.686Z,10.83
2022-10-18T02:53:14.927Z,10.79
2022-10-18T02:55:47.225Z,10.78
2022-10-18T02:58:19.288Z,10.79
2022-10-18T03:00:53.663Z,10.77
2022-10-18T03:03:25.828Z,10.74
2022-10-18T03:05:57.959Z,10.71
2022-10-18T03:08:30.130Z,10.70
2022-10-18T03:11:02.301Z,10.68
2022-10-18T03:13:35.106Z,10.64
2022-10-18T03:16:09.310Z,10.63
2022-10-18T03:18:41.469Z,10.62
2022-10-18T03:21:13.695Z,10.61
2022-10-18T03:23:45.830Z,10.61
2022-10-18T03:26:17.984Z,10.60
2022-10-18T03:28:50.214Z,10.60
2022-10-18T03:31:22.457Z,10.63
2022-10-18T03:33:54.607Z,10.65
2022-10-18T03:36:26.721Z,10.68
2022-10-18T03:38:58.782Z,10.72
2022-10-18T03:41:31.230Z,10.73
2022-10-18T03:44:03.476Z,10.76
2022-10-18T03:46:35.531Z,10.73
2022-10-18T03:49:07.612Z,10.69
2022-10-18T03:51:39.718Z,10.68
2022-10-18T03:54:11.902Z,10.68
2022-10-18T03:56:44.034Z,10.67
2022-10-18T03:59:17.171Z,10.66
2022-10-18T04:01:49.366Z,10.64
2022-10-18T04:04:21.581Z,10.64
2022-10-18T04:06:56.272Z,10.62
2022-10-18T04:09:28.448Z,10.55
2022-10-18T04:12:00.634Z,10.52
2022-10-18T04:14:32.905Z,10.50
2022-10-18T04:17:05.133Z,10.46
2022-10-18T04:19:37.396Z,10.37
2022-10-18T04:22:09.513Z,10.28
2022-10-18T04:24:41.901Z,10.23
2022-10-18T04:27:14.042Z,10.21
2022-10-18T04:29:46.278Z,10.20
2022-10-18T04:32:18.526Z,10.21
2022-10-18T04:34:50.733Z,10.17
2022-10-18T04:37:22.961Z,10.15
2022-10-18T04:39:55.951Z,10.14
2022-10-18T04:42:28.382Z,10.14
2022-10-18T04:45:00.607Z,10.14
2022-10-18T04:47:33.184Z,10.15
2022-10-18T04:50:06.269Z,10.16
2022-10-18T04:52:38.639Z,10.17
2022-10-18T04:55:11.429Z,10.18
2022-10-18T04:57:43.643Z,10.17
2022-10-18T05:00:17.212Z,10.18
2022-10-18T05:02:49.374Z,10.17
2022-10-18T05:05:21.549Z,10.17
2022-10-18T05:07:53.671Z,10.16
2022-10-18T05:10:25.794Z,10.15
2022-10-18T05:12:57.994Z,10.14
2022-10-18T05:15:30.466Z,10.13
2022-10-18T05:18:02.765Z,10.12
2022-10-18T05:20:34.939Z,10.11
2022-10-18T05:23:11.055Z,10.09
2022-10-18T05:25:45.796Z,10.05
2022-10-18T05:28:47.934Z,10.07
2022-10-18T05:31:11.572Z,10.14
2022-10-18T05:33:43.793Z,10.19
2022-10-18T05:36:16.077Z,10.25
2022-10-18T05:38:48.625Z,10.29
2022-10-18T05:41:20.786Z,10.30
2022-10-18T05:43:53.001Z,10.35
2022-10-18T05:46:25.344Z,10.40
2022-10-18T05:48:57.647Z,10.44
2022-10-18T05:51:29.861Z,10.47
2022-10-18T05:54:02.074Z,10.47
2022-10-18T05:56:34.368Z,10.47
2022-10-18T05:59:10.635Z,10.47
2022-10-18T06:01:44.053Z,10.44
2022-10-18T06:04:17.981Z,10.48
2022-10-18T06:06:50.344Z,10.54
2022-10-18T06:09:22.581Z,10.65
2022-10-18T06:11:55.648Z,10.76
2022-10-18T06:14:29.358Z,10.88
2022-10-18T06:17:01.642Z,10.98
2022-10-18T06:19:34.158Z,11.04
2022-10-18T06:22:06.385Z,11.11
2022-10-18T06:24:38.543Z,11.18
2022-10-18T06:27:10.596Z,11.22
2022-10-18T06:29:42.968Z,11.23
2022-10-18T06:32:15.196Z,11.23
2022-10-18T06:34:47.244Z,11.19
2022-10-18T06:37:19.355Z,11.11
2022-10-18T06:39:51.622Z,11.06
2022-10-18T06:42:23.786Z,11.06
2022-10-18T06:44:55.933Z,11.12
2022-10-18T06:47:28.129Z,11.16
2022-10-18T06:50:00.306Z,11.20
2022-10-18T06:52:32.801Z,11.26
2022-10-18T06:55:09.186Z,11.30
2022-10-18T06:57:41.473Z,11.34
2022-10-18T07:00:15.899Z,11.42
2022-10-18T07:02:48.026Z,11.47
2022-10-18T07:05:20.442Z,11.52
2022-10-18T07:07:55.672Z,11.56
2022-10-18T07:10:28.634Z,11.60
2022-10-18T07:13:19.921Z,11.64
2022-10-18T07:16:03.296Z,11.67
2022-10-18T07:18:36.041Z,11.72
2022-10-18T07:21:10.977Z,11.77
2022-10-18T07:23:44.557Z,11.83
2022-10-18T07:26:18.257Z,11.90
2022-10-18T07:28:54.324Z,11.96
2022-10-18T07:31:27.161Z,12.04
2022-10-18T07:33:59.688Z,12.11
2022-10-18T07:36:31.784Z,12.19
2022-10-18T07:39:03.869Z,12.26
2022-10-18T07:41:36.404Z,12.33
2022-10-18T07:44:09.192Z,12.41
2022-10-18T07:46:41.312Z,12.49
2022-10-18T07:49:13.518Z,12.56
2022-10-18T07:51:45.554Z,12.62
2022-10-18T07:54:17.888Z,12.70
2022-10-18T07:56:49.949Z,12.77
2022-10-18T07:59:22.137Z,12.85
2022-10-18T08:01:54.382Z,12.93
2022-10-18T08:04:26.590Z,13.01
2022-10-18T08:06:58.882Z,13.10
2022-10-18T08:09:31.229Z,13.17
2022-10-18T08:12:03.320Z,13.26
2022-10-18T08:14:35.383Z,13.34
2022-10-18T08:17:07.461Z,13.43
2022-10-18T08:19:48.243Z,13.51
2022-10-18T08:22:30.718Z,13.59
2022-10-18T08:25:02.865Z,13.67
2022-10-18T08:27:35.365Z,13.75
2022-10-18T08:30:09.682Z,13.83
2022-10-18T08:32:41.783Z,13.91
2022-10-18T08:35:13.890Z,13.99
2022-10-18T08:37:46.389Z,14.07
2022-10-18T08:40:18.779Z,14.16
2022-10-18T08:43:07.225Z,14.24
2022-10-18T08:45:43.140Z,14.33
2022-10-18T08:48:25.013Z,14.41
2022-10-18T08:50:58.481Z,14.50
2022-10-18T08:53:36.196Z,14.59
2022-10-18T08:56:15.719Z,14.70
2022-10-18T08:58:47.995Z,14.80
2022-10-18T09:01:29.617Z,14.92
2022-10-18T09:04:26.771Z,15.05
2022-10-18T09:07:14.066Z,15.18
2022-10-18T09:09:52.104Z,15.31
2022-10-18T09:12:43.777Z,15.46
2022-10-18T09:15:19.787Z,15.62
2022-10-18T09:18:05.894Z,15.80
2022-10-18T09:20:53.129Z,16.07
2022-10-18T09:23:28.978Z,16.40
2022-10-18T09:26:08.159Z,16.78
2022-10-18T09:28:46.562Z,17.16
2022-10-18T09:31:22.962Z,17.60
2022-10-18T09:33:57.432Z,18.08
2022-10-18T09:36:35.613Z,18.53
2022-10-18T09:39:14.974Z,18.96
2022-10-18T09:41:51.810Z,19.49
2022-10-18T09:44:25.973Z,20.02
2022-10-18T09:47:01.647Z,20.47
2022-10-18T09:49:38.303Z,20.84
2022-10-18T09:52:18.637Z,21.26
2022-10-18T09:54:55.553Z,21.73
2022-10-18T09:57:32.946Z,22.12
2022-10-18T10:00:07.062Z,22.49
2022-10-18T10:02:39.320Z,22.83
2022-10-18T10:05:15.503Z,23.11
2022-10-18T10:07:50.709Z,23.30
2022-10-18T10:10:25.481Z,23.53
2022-10-18T10:13:07.785Z,23.85
2022-10-18T10:15:42.569Z,24.16
2022-10-18T10:18:22.447Z,24.58
2022-10-18T10:20:56.077Z,24.90
2022-10-18T10:23:30.884Z,25.22
2022-10-18T10:26:05.476Z,25.55
2022-10-18T10:28:46.545Z,25.85
2022-10-18T10:31:29.939Z,26.15
2022-10-18T10:34:04.322Z,26.31
2022-10-18T10:36:36.840Z,26.28
2022-10-18T10:39:12.470Z,26.23
2022-10-18T10:41:44.649Z,26.25
2022-10-18T10:44:17.400Z,26.29
2022-10-18T10:46:51.553Z,26.46
2022-10-18T10:49:41.621Z,26.56
2022-10-18T10:52:28.562Z,26.64
2022-10-18T10:55:17.018Z,26.87
2022-10-18T10:57:55.642Z,27.13
2022-10-18T11:00:43.017Z,27.35
2022-10-18T11:03:28.568Z,27.37
2022-10-18T11:06:02.475Z,27.40
2022-10-18T11:08:37.993Z,27.46
2022-10-18T11:11:20.722Z,27.69
2022-10-18T11:14:21.012Z,27.95
2022-10-18T11:16:58.351Z,28.17
2022-10-18T11:19:38.127Z,28.36
2022-10-18T11:22:15.333Z,28.55
2022-10-18T11:24:47.547Z,28.41
2022-10-18T11:27:24.101Z,28.33
2022-10-18T11:30:07.888Z,28.33
2022-10-18T11:32:45.644Z,28.03
2022-10-18T11:35:34.538Z,27.81
2022-10-18T11:38:18.347Z,27.62
2022-10-18T11:41:01.070Z,27.49
2022-10-18T11:44:00.636Z,27.50
2022-10-18T11:46:41.280Z,27.84
2022-10-18T11:49:27.758Z,27.93
2022-10-18T11:52:09.359Z,28.20
2022-10-18T11:55:11.193Z,28.48
2022-10-18T11:57:48.613Z,28.62
2022-10-18T12:00:30.507Z,28.62
2022-10-18T12:03:19.956Z,28.40
2022-10-18T12:05:54.192Z,28.23
2022-10-18T12:08:30.531Z,28.35
2022-10-18T12:11:07.754Z,28.57
2022-10-18T12:13:45.264Z,28.50
2022-10-18T12:16:18.184Z,28.30
2022-10-18T12:18:55.681Z,28.44
2022-10-18T12:21:30.357Z,28.55
2022-10-18T12:24:06.537Z,28.35
2022-10-18T12:26:39.049Z,28.16
2022-10-18T12:29:18.545Z,28.01
2022-10-18T12:31:53.800Z,27.92
2022-10-18T12:34:33.647Z,27.82
2022-10-18T12:37:32.339Z,27.77
2022-10-18T12:40:14.246Z,27.72
2022-10-18T12:42:49.957Z,27.76
2022-10-18T12:45:33.576Z,27.90
2022-10-18T12:48:08.373Z,27.82
2022-10-18T12:50:41.766Z,27.79
2022-10-18T12:53:22.799Z,27.93
2022-10-18T12:55:55.911Z,28.06
2022-10-18T12:58:33.565Z,27.91
2022-10-18T13:01:08.046Z,27.66
2022-10-18T13:03:56.292Z,27.49
2022-10-18T13:06:28.783Z,27.36
2022-10-18T13:09:24.755Z,27.23
2022-10-18T13:12:01.938Z,27.31
2022-10-18T13:15:20.639Z,27.25
2022-10-18T13:17:55.194Z,27.06
2022-10-18T13:20:32.034Z,27.06
2022-10-18T13:23:12.031Z,27.26
2022-10-18T13:25:55.692Z,27.44
2022-10-18T13:28:35.936Z,27.59
2022-10-18T13:31:16.083Z,27.56
2022-10-18T13:33:48.354Z,27.23
2022-10-18T13:36:29.537Z,26.93
2022-10-18T13:39:17.510Z,26.59
2022-10-18T13:42:29.707Z,26.25
2022-10-18T13:45:32.752Z,25.74
2022-10-18T13:48:35.573Z,25.22
2022-10-18T13:51:24.158Z,24.81
2022-10-18T13:54:02.155Z,24.60
2022-10-18T13:56:55.372Z,24.47
2022-10-18T13:59:47.277Z,24.31
2022-10-18T14:02:51.159Z,24.15
2022-10-18T14:05:30.747Z,23.93
2022-10-18T14:08:10.353Z,23.79
2022-10-18T14:11:01.390Z,23.67
2022-10-18T14:13:40.321Z,23.51
2022-10-18T14:16:22.834Z,23.38
2022-10-18T14:18:56.708Z,23.37
2022-10-18T14:21:33.734Z,23.40
2022-10-18T14:24:07.781Z,23.39
2022-10-18T14:29:21.628Z,23.20
2022-10-18T14:31:58.142Z,23.07
2022-10-18T14:34:30.931Z,22.96
2022-10-18T14:37:03.095Z,22.94
2022-10-18T14:39:35.262Z,22.91
2022-10-18T14:42:19.372Z,22.85
2022-10-18T14:44:54.427Z,22.80
2022-10-18T14:47:30.264Z,22.69
2022-10-18T14:50:02.543Z,22.54
2022-10-18T14:52:35.967Z,22.43
2022-10-18T14:55:13.926Z,22.29
2022-10-18T14:57:46.069Z,22.18
2022-10-18T15:00:25.608Z,22.08
2022-10-18T15:02:57.771Z,21.96
2022-10-18T15:05:32.235Z,21.89
2022-10-18T15:08:04.704Z,21.83
2022-10-18T15:10:38.175Z,21.77
2022-10-18T15:13:11.883Z,21.67
2022-10-18T15:15:44.708Z,21.58
2022-10-18T15:18:24.399Z,21.50
2022-10-18T15:21:24.176Z,21.42
2022-10-18T15:23:56.744Z,21.26
2022-10-18T15:26:30.907Z,21.09
2022-10-18T15:29:06.052Z,20.93
2022-10-18T15:31:40.337Z,20.77
2022-10-18T15:34:16.449Z,20.64
2022-10-18T15:36:48.947Z,20.58
2022-10-18T15:39:23.397Z,20.53
2022-10-18T15:41:56.657Z,20.46
2022-10-18T15:44:32.315Z,20.34
2022-10-18T15:47:21.474Z,20.22
2022-10-18T15:49:56.913Z,20.04
2022-10-18T15:52:42.913Z,19.92
2022-10-18T15:55:49.069Z,19.78
2022-10-18T15:58:24.260Z,19.63
2022-10-18T16:00:58.032Z,19.59
2022-10-18T16:03:32.766Z,19.52
2022-10-18T16:06:08.097Z,19.43
2022-10-18T16:08:43.616Z,19.35
2022-10-18T16:11:19.009Z,19.27
2022-10-18T16:13:52.179Z,19.22
2022-10-18T16:16:27.660Z,19.16
2022-10-18T16:19:00.453Z,19.11
2022-10-18T16:21:34.359Z,19.06
2022-10-18T16:24:07.667Z,19.02
2022-10-18T16:26:40.157Z,18.97
2022-10-18T16:29:12.006Z,18.89
2022-10-18T16:31:44.304Z,18.73
2022-10-18T16:34:16.532Z,18.61
2022-10-18T16:36:48.792Z,18.52
2022-10-18T16:39:21.890Z,18.46
2022-10-18T16:41:54.169Z,18.40
2022-10-18T16:44:26.230Z,18.30
2022-10-18T16:46:58.341Z,18.22
2022-10-18T16:49:30.417Z,18.13
2022-10-18T16:52:02.626Z,18.03
2022-10-18T16:54:35.869Z,17.91
2022-10-18T16:57:08.051Z,17.81
2022-10-18T16:59:40.322Z,17.69
2022-10-18T17:02:13.329Z,17.55
2022-10-18T17:04:45.533Z,17.49
2022-10-18T17:07:22.642Z,17.48
2022-10-18T17:09:54.900Z,17.46
2022-10-18T17:12:27.029Z,17.45
2022-10-18T17:14:59.233Z,17.39
2022-10-18T17:17:31.669Z,17.26
2022-10-18T17:20:04.605Z,17.21
2022-10-18T17:22:36.744Z,17.17
2022-10-18T17:25:10.046Z,17.13
2022-10-18T17:27:42.136Z,17.08
2022-10-18T17:30:17.955Z,16.92
2022-10-18T17:32:50.108Z,16.80
2022-10-18T17:35:23.090Z,16.77
2022-10-18T17:37:55.503Z,16.73
2022-10-18T17:40:27.713Z,16.65
2022-10-18T17:43:00.447Z,16.62
2022-10-18T17:45:32.619Z,16.53
2022-10-18T17:48:05.068Z,16.46
2022-10-18T17:50:37.410Z,16.41
2022-10-18T17:53:09.325Z,16.38
2022-10-18T17:55:41.608Z,16.33
2022-10-18T17:58:13.824Z,16.33
2022-10-18T18:00:45.995Z,16.27
2022-10-18T18:03:28.527Z,16.23
2022-10-18T18:06:01.394Z,16.21
2022-10-18T18:08:33.672Z,16.18
2022-10-18T18:11:06.043Z,16.15
2022-10-18T18:13:38.289Z,16.09
2022-10-18T18:16:16.216Z,16.05
2022-10-18T18:18:50.476Z,16.02
2022-10-18T18:21:23.267Z,15.98
2022-10-18T18:23:55.716Z,15.90
2022-10-18T18:26:28.284Z,15.86
2022-10-18T18:28:58.993Z,15.84
2022-10-18T18:31:34.518Z,15.76
2022-10-18T18:34:11.808Z,15.70
2022-10-18T18:36:44.480Z,15.67
2022-10-18T18:39:19.261Z,15.63
2022-10-18T18:41:52.963Z,15.55
2022-10-18T18:44:25.896Z,15.51
2022-10-18T18:46:58.857Z,15.44
2022-10-18T18:49:31.611Z,15.40
2022-10-18T18:52:04.034Z,15.40
2022-10-18T18:54:36.380Z,15.39
2022-10-18T18:57:08.600Z,15.36
2022-10-18T18:59:40.821Z,15.28
2022-10-18T19:02:13.945Z,15.20
2022-10-18T19:04:46.196Z,15.12
2022-10-18T19:07:18.443Z,15.09
2022-10-18T19:09:51.066Z,15.08
2022-10-18T19:12:21.628Z,15.07
2022-10-18T19:14:55.006Z,15.02
2022-10-18T19:17:27.557Z,15.01
2022-10-18T19:20:01.277Z,14.93
2022-10-18T19:22:33.415Z,14.82
2022-10-18T19:25:05.965Z,14.74
2022-10-18T19:27:38.635Z,14.67
2022-10-18T19:30:12.814Z,14.57
2022-10-18T19:32:45.123Z,14.56
2022-10-18T19:35:17.497Z,14.55
2022-10-18T19:37:49.745Z,14.55
2022-10-18T19:40:21.926Z,14.54
2022-10-18T19:42:54.183Z,14.48
2022-10-18T19:45:26.380Z,14.40
2022-10-18T19:47:58.519Z,14.37
2022-10-18T19:50:31.838Z,14.38
2022-10-18T19:53:04.049Z,14.39
2022-10-18T19:55:38.456Z,14.39
2022-10-18T19:58:10.695Z,14.38
2022-10-18T20:00:42.903Z,14.37
2022-10-18T20:03:16.270Z,14.35
2022-10-18T20:05:48.473Z,14.31
2022-10-18T20:08:20.587Z,14.30
2022-10-18T20:10:52.955Z,14.29
2022-10-18T20:13:25.156Z,14.31
2022-10-18T20:15:57.472Z,14.30
2022-10-18T20:18:29.725Z,14.27
2022-10-18T20:21:02.102Z,14.24
2022-10-18T20:23:34.230Z,14.15
2022-10-18T20:26:08.632Z,14.04
2022-10-18T20:28:42.026Z,14.01
2022-10-18T20:31:17.067Z,13.99
2022-10-18T20:33:54.285Z,13.99
2022-10-18T20:36:27.299Z,13.98
2022-10-18T20:38:59.620Z,13.95
2022-10-18T20:41:33.849Z,13.90
2022-10-18T20:44:08.525Z,13.89
2022-10-18T20:46:41.140Z,13.88
2022-10-18T20:49:12.266Z,13.87
2022-10-18T20:51:44.389Z,13.84
2022-10-18T20:54:16.513Z,13.83
2022-10-18T20:56:48.635Z,13.80
2022-10-18T20:59:20.726Z,13.76
2022-10-18T21:01:52.825Z,13.74
2022-10-18T21:04:25.047Z,13.72
2022-10-18T21:06:57.073Z,13.69
2022-10-18T21:09:29.171Z,13.68
2022-10-18T21:12:01.297Z,13.67
2022-10-18T21:14:33.759Z,13.67
2022-10-18T21:17:05.827Z,13.67
2022-10-18T21:19:38.180Z,13.65
2022-10-18T21:22:10.215Z,13.62
2022-10-18T21:24:42.672Z,13.62
2022-10-18T21:27:16.933Z,13.63
2022-10-18T21:29:49.544Z,13.63
2022-10-18T21:32:19.900Z,13.63
2022-10-18T21:34:52.078Z,13.59
2022-10-18T21:37:24.174Z,13.59
2022-10-18T21:39:56.330Z,13.58
2022-10-18T21:42:28.440Z,13.54
2022-10-18T21:45:00.527Z,13.50
2022-10-18T21:47:32.629Z,13.46
2022-10-18T21:50:04.921Z,13.44
2022-10-18T21:52:37.029Z,13.44
2022-10-18T21:55:10.533Z,13.41
2022-10-18T21:57:42.836Z,13.40
2022-10-18T22:00:18.775Z,13.39
2022-10-18T22:02:50.827Z,13.38
2022-10-18T22:05:23.134Z,13.37
2022-10-18T22:07:55.232Z,13.34
2022-10-18T22:10:27.295Z,13.32
2022-10-18T22:12:59.719Z,13.29
2022-10-18T22:15:31.850Z,13.27
2022-10-18T22:18:03.968Z,13.26
2022-10-18T22:20:36.086Z,13.26
2022-10-18T22:23:08.258Z,13.24
2022-10-18T22:25:40.342Z,13.19
2022-10-18T22:28:12.485Z,13.13
2022-10-18T22:30:44.729Z,13.09
2022-10-18T22:33:16.829Z,13.09
2022-10-18T22:35:52.954Z,13.07
2022-10-18T22:38:25.064Z,13.00
2022-10-18T22:40:57.186Z,12.92
2022-10-18T22:43:31.862Z,12.84
2022-10-18T22:46:04.786Z,12.72
2022-10-18T22:48:37.427Z,12.65
2022-10-18T22:51:07.971Z,12.63
2022-10-18T22:53:41.091Z,12.61
2022-10-18T22:56:16.778Z,12.62
2022-10-18T22:58:49.489Z,12.64
2022-10-18T23:01:23.468Z,12.63
2022-10-18T23:03:59.395Z,12.54
2022-10-18T23:06:32.963Z,12.44
2022-10-18T23:09:07.859Z,12.35
2022-10-18T23:11:40.356Z,12.30
2022-10-18T23:14:13.315Z,12.30
2022-10-18T23:16:45.865Z,12.27
2022-10-18T23:19:19.120Z,12.24
2022-10-18T23:21:51.257Z,12.15
2022-10-18T23:24:23.335Z,12.05
2022-10-18T23:26:55.572Z,11.99
2022-10-18T23:29:27.789Z,12.00
2022-10-18T23:31:59.900Z,12.01
2022-10-18T23:34:31.998Z,12.01
2022-10-18T23:37:04.118Z,12.02
2022-10-18T23:39:36.205Z,12.04
2022-10-18T23:42:08.805Z,12.04
2022-10-18T23:44:40.909Z,12.03
2022-10-18T23:47:12.993Z,12.01
2022-10-18T23:49:45.558Z,11.99
2022-10-18T23:52:17.681Z,11.99
2022-10-18T23:54:50.230Z,12.00
2022-10-18T23:57:22.365Z,11.99
2022-10-18T23:59:54.501Z,12.00
